Time;durP1;ratioP1;P1;durP2;ratioP2;P2;SDS_P1;SDS_P2;PMS_P1;PMS_P2;Temp;Humidity;BMP_temperature;BMP_pressure;BME280_temperature;BME280_humidity;BME280_pressure;Samples;Min_cycle;Max_cycle;Signal;HPM_P1;HPM_P2
2023/03/30 00:00:59;;;;;;;3.50;2.63;;;;;;;11.66;99.02;100601.50;5052556;28;20242;-81
2023/03/30 00:03:26;;;;;;;12.68;3.05;;;;;;;11.68;98.44;100603.16;5045174;28;20128;-81
2023/03/30 00:05:55;;;;;;;8.88;2.70;;;;;;;11.68;98.20;100603.16;5031439;28;20076;-81
2023/03/30 00:08:27;;;;;;;5.43;2.50;;;;;;;11.51;99.12;100581.09;5046281;28;20084;-81
2023/03/30 00:11:16;;;;;;;4.20;2.10;;;;;;;11.56;99.44;100587.03;5032562;28;20025;-81
2023/03/30 00:16:16;;;;;;;4.47;2.30;;;;;;;11.32;98.81;100576.44;4991377;28;20058;-81
2023/03/30 00:18:43;;;;;;;6.43;2.55;;;;;;;11.25;99.09;100575.78;4992667;28;20403;-81
2023/03/30 00:21:09;;;;;;;7.28;2.60;;;;;;;11.21;99.87;100575.91;4992528;28;20085;-81
2023/03/30 00:23:38;;;;;;;4.68;2.55;;;;;;;11.29;98.58;100576.53;4984498;28;20066;-81
2023/03/30 00:26:03;;;;;;;7.35;2.58;;;;;;;11.22;98.41;100548.94;4982750;28;20502;-81
2023/03/30 00:28:30;;;;;;;3.58;2.28;;;;;;;11.32;99.05;100568.63;4995375;28;20029;-82
2023/03/30 00:30:55;;;;;;;8.88;2.42;;;;;;;11.34;97.68;100569.41;4996857;28;20026;-81
2023/03/30 00:33:21;;;;;;;4.45;2.35;;;;;;;11.37;96.31;100578.91;4982114;28;20485;-81
2023/03/30 00:35:57;;;;;;;6.38;2.42;;;;;;;11.28;98.15;100564.41;4996293;28;20042;-81
2023/03/30 00:38:24;;;;;;;3.97;2.28;;;;;;;11.09;97.74;100526.72;4996651;28;20076;-81
2023/03/30 00:40:56;;;;;;;5.00;2.50;;;;;;;11.24;97.45;100553.19;4995858;28;20026;-81
2023/03/30 00:43:22;;;;;;;4.18;2.55;;;;;;;11.17;97.97;100549.06;4996313;28;20521;-81
2023/03/30 00:45:48;;;;;;;5.13;2.45;;;;;;;11.04;97.60;100542.50;4996365;28;20030;-81
2023/03/30 00:48:16;;;;;;;5.03;2.38;;;;;;;11.14;98.18;100553.53;5009243;28;20048;-81
2023/03/30 00:50:50;;;;;;;4.10;2.30;;;;;;;11.03;98.21;100530.38;4995977;28;20386;-81
2023/03/30 00:53:23;;;;;;;3.97;2.70;;;;;;;11.10;98.17;100533.66;4996535;28;20038;-81
2023/03/30 00:55:50;;;;;;;6.20;2.60;;;;;;;11.04;97.99;100521.63;4995228;28;20597;-81
2023/03/30 00:58:18;;;;;;;5.95;2.45;;;;;;;11.07;98.16;100523.31;4984367;28;20098;-81
2023/03/30 01:00:46;;;;;;;7.88;2.47;;;;;;;11.02;97.92;100499.97;4994645;28;20026;-81
2023/03/30 01:03:26;;;;;;;5.15;2.35;;;;;;;11.06;98.28;100519.84;4995190;28;20034;-81
2023/03/30 01:05:54;;;;;;;5.03;2.00;;;;;;;10.99;98.46;100511.34;4995994;28;20018;-81
2023/03/30 01:08:22;;;;;;;4.75;2.53;;;;;;;10.96;98.85;100519.28;4995281;28;20708;-81
2023/03/30 01:10:51;;;;;;;6.65;2.50;;;;;;;10.76;99.71;100495.56;4995805;28;20038;-81
2023/03/30 01:13:18;;;;;;;9.43;2.58;;;;;;;10.89;99.32;100509.94;4995962;28;20466;-81
2023/03/30 01:16:02;;;;;;;5.50;2.65;;;;;;;10.84;99.63;100505.75;4994632;28;20125;-81
2023/03/30 01:18:34;;;;;;;;;;;;;;;10.84;100.00;100524.84;4996120;28;20026;-81
2023/03/30 01:21:15;;;;;;;4.32;2.20;;;;;;;10.82;100.00;100523.16;4995777;28;20055;-81
2023/03/30 01:24:03;;;;;;;9.32;2.38;;;;;;;10.79;100.00;100521.53;4994878;28;20102;-81
2023/03/30 01:26:49;;;;;;;8.35;2.58;;;;;;;10.76;100.00;100513.81;4982399;28;20121;-81
2023/03/30 01:29:37;;;;;;;8.90;2.40;;;;;;;10.84;100.00;100522.25;4995106;28;20030;-81
2023/03/30 01:32:14;;;;;;;12.38;2.75;;;;;;;11.10;99.37;100518.00;5108272;23;20095;-81
2023/03/30 01:34:58;;;;;;;12.25;2.75;;;;;;;11.28;98.55;100522.66;5037475;28;20029;-81
2023/03/30 01:38:09;;;;;;;4.38;2.15;;;;;;;11.40;97.96;100511.81;5036471;23;20410;-81
2023/03/30 01:44:03;;;;;;;6.55;2.17;;;;;;;11.04;94.81;100399.03;4983760;28;20048;-81
2023/03/30 01:49:53;;;;;;;3.45;2.17;;;;;;;11.70;94.86;100489.03;5014836;28;20048;-81
2023/03/30 01:52:27;;;;;;;6.20;2.20;;;;;;;11.55;94.73;100478.28;5013909;28;20076;-81
2023/03/30 01:55:03;;;;;;;5.93;2.30;;;;;;;11.55;94.59;100489.59;5014568;28;20029;-81
2023/03/30 01:57:45;;;;;;;6.43;2.17;;;;;;;11.70;93.21;100517.78;5013952;28;20033;-81
2023/03/30 02:00:14;;;;;;;7.05;2.20;;;;;;;11.70;93.27;100490.81;5014658;28;20018;-81
2023/03/30 02:02:45;;;;;;;6.28;2.42;;;;;;;11.76;93.01;100513.25;5014285;28;20033;-81
2023/03/30 02:05:14;;;;;;;3.67;2.20;;;;;;;11.70;93.48;100514.31;5000400;28;20411;-81
2023/03/30 02:07:50;;;;;;;8.07;1.95;;;;;;;11.59;94.00;100513.81;5014618;28;20063;-81
2023/03/30 02:10:18;;;;;;;5.55;2.22;;;;;;;11.40;95.14;100514.41;5012803;28;20064;-81
2023/03/30 02:12:45;;;;;;;3.55;2.00;;;;;;;11.26;95.39;100500.97;5002029;28;20469;-81
2023/03/30 02:15:14;;;;;;;3.00;2.05;;;;;;;11.31;95.67;100519.91;5014574;28;20026;-81
2023/03/30 02:17:41;;;;;;;6.78;2.38;;;;;;;11.18;97.02;100506.44;5014224;28;20018;-81
2023/03/30 02:20:11;;;;;;;5.55;2.80;;;;;;;11.14;97.02;100488.28;5013461;28;20060;-81
2023/03/30 02:22:37;;;;;;;5.15;2.30;;;;;;;11.15;97.62;100496.09;5013681;28;20030;-81
2023/03/30 02:25:04;;;;;;;5.22;2.53;;;;;;;11.17;97.92;100494.25;5014434;28;20022;-81
2023/03/30 02:27:31;;;;;;;6.55;2.58;;;;;;;11.25;98.14;100496.66;5013311;28;20022;-81
2023/03/30 02:29:57;;;;;;;5.65;2.45;;;;;;;11.14;98.45;100480.47;5014255;28;20072;-81
2023/03/30 02:32:30;;;;;;;6.55;2.53;;;;;;;11.30;98.20;100494.72;5001797;28;20023;-81
2023/03/30 02:35:17;;;;;;;7.50;2.35;;;;;;;11.52;96.73;100507.09;4999277;28;20029;-81
2023/03/30 02:38:11;;;;;;;7.32;2.65;;;;;;;11.60;95.86;100497.25;5013476;28;20121;-81
2023/03/30 02:41:02;;;;;;;4.13;2.33;;;;;;;11.75;94.95;100495.91;5012231;28;20042;-81
2023/03/30 02:43:49;;;;;;;7.13;2.20;;;;;;;11.76;95.13;100497.59;5013373;28;20085;-81
2023/03/30 02:46:35;;;;;;;8.27;2.10;;;;;;;11.76;95.18;100495.84;5013927;28;20030;-81
2023/03/30 02:49:30;;;;;;;6.68;2.40;;;;;;;11.88;93.32;100498.06;5004991;28;20027;-81
2023/03/30 02:52:17;;;;;;;6.97;2.10;;;;;;;11.94;94.66;100500.47;5012669;28;20025;-81
2023/03/30 02:55:00;;;;;;;4.88;1.90;;;;;;;11.94;92.78;100497.00;5012678;28;20405;-81
2023/03/30 02:57:39;;;;;;;5.57;2.20;;;;;;;12.07;92.83;100502.66;4990865;28;20030;-81
2023/03/30 03:00:13;;;;;;;4.00;2.00;;;;;;;12.06;91.75;100487.88;5013285;28;20042;-82
2023/03/30 03:02:42;;;;;;;6.60;1.80;;;;;;;12.04;92.21;100477.50;5012722;28;20030;-82
2023/03/30 03:05:10;;;;;;;4.90;2.10;;;;;;;12.19;91.47;100489.16;4997852;28;20030;-81
2023/03/30 03:07:37;;;;;;;5.15;1.95;;;;;;;12.24;90.89;100476.78;5000381;28;20018;-81
2023/03/30 03:10:03;;;;;;;5.63;1.90;;;;;;;12.21;90.69;100469.03;5013185;28;20022;-81
2023/03/30 03:12:28;;;;;;;5.03;1.83;;;;;;;12.13;91.40;100458.88;4999606;28;20044;-81
2023/03/30 03:14:53;;;;;;;5.55;1.95;;;;;;;12.21;91.21;100484.72;5011595;28;20806;-81
2023/03/30 03:17:21;;;;;;;4.80;2.38;;;;;;;12.15;91.73;100493.63;5013345;28;20041;-82
2023/03/30 03:19:47;;;;;;;5.35;1.85;;;;;;;12.08;90.99;100470.41;5013166;28;20032;-82
2023/03/30 03:22:12;;;;;;;4.40;2.15;;;;;;;12.07;91.92;100476.53;5012583;28;20052;-81
2023/03/30 03:24:39;;;;;;;7.50;2.22;;;;;;;12.15;90.88;100482.31;5012996;28;20026;-81
2023/03/30 03:27:05;;;;;;;8.13;2.22;;;;;;;12.13;92.11;100476.28;5012891;28;20018;-82
2023/03/30 03:29:31;;;;;;;10.57;2.58;;;;;;;12.11;91.69;100481.59;5012100;28;20022;-81
2023/03/30 03:31:56;;;;;;;4.47;2.30;;;;;;;12.08;92.56;100488.69;5004865;28;20037;-81
2023/03/30 03:34:24;;;;;;;6.68;2.13;;;;;;;12.14;90.67;100483.25;5007570;28;20068;-81
2023/03/30 03:36:51;;;;;;;5.28;1.98;;;;;;;12.19;89.62;100476.06;5011646;28;20034;-81
2023/03/30 03:39:16;;;;;;;9.55;2.40;;;;;;;12.24;88.95;100473.31;5013095;28;20067;-82
2023/03/30 03:41:42;;;;;;;6.22;2.25;;;;;;;12.13;88.31;100447.56;4998950;28;20009;-81
2023/03/30 03:44:07;;;;;;;6.95;2.28;;;;;;;12.29;89.25;100472.22;5012255;28;20053;-81
2023/03/30 03:46:32;;;;;;;4.78;1.77;;;;;;;12.33;87.78;100473.00;5012175;28;20129;-82
2023/03/30 03:48:58;;;;;;;5.10;2.45;;;;;;;12.30;87.57;100458.25;5012710;28;20049;-81
2023/03/30 03:51:23;;;;;;;4.28;2.10;;;;;;;12.30;87.44;100457.41;5011968;28;20114;-81
2023/03/30 03:53:48;;;;;;;6.07;2.10;;;;;;;12.33;85.75;100466.00;5006123;28;20070;-81
2023/03/30 03:56:14;;;;;;;6.38;2.05;;;;;;;12.33;85.90;100449.47;4993105;28;20023;-82
2023/03/30 03:58:39;;;;;;;6.13;2.20;;;;;;;12.41;85.79;100458.72;5019144;22;20022;-82
2023/03/30 04:01:05;;;;;;;6.28;2.13;;;;;;;12.43;85.88;100465.66;5032741;28;20112;-81
2023/03/30 04:03:30;;;;;;;3.10;1.73;;;;;;;12.38;85.71;100460.59;5034984;28;20045;-81
2023/03/30 04:05:59;;;;;;;5.50;1.95;;;;;;;12.37;84.50;100445.81;5044143;28;20024;-81
2023/03/30 04:08:25;;;;;;;4.72;2.00;;;;;;;12.46;84.16;100452.44;5041920;28;20104;-81
2023/03/30 04:10:50;;;;;;;3.80;2.05;;;;;;;12.38;85.09;100447.50;5035682;28;20490;-82
2023/03/30 04:13:15;;;;;;;4.95;2.15;;;;;;;12.10;90.39;100451.16;5036424;28;20107;-82
2023/03/30 04:15:41;;;;;;;7.10;2.63;;;;;;;11.83;90.42;100439.88;5036140;28;20465;-82
2023/03/30 04:18:07;;;;;;;6.53;2.25;;;;;;;11.79;91.46;100446.09;5035923;28;20025;-81
2023/03/30 04:20:32;;;;;;;9.85;2.28;;;;;;;12.02;89.44;100447.94;5038811;28;20021;-82
2023/03/30 04:23:00;;;;;;;6.32;1.88;;;;;;;12.09;88.50;100443.34;5047900;28;20033;-82
2023/03/30 04:25:26;;;;;;;6.00;2.10;;;;;;;12.20;87.55;100443.84;5036025;28;20025;-82
2023/03/30 04:27:52;;;;;;;5.57;2.60;;;;;;;12.26;87.49;100446.22;5042389;28;20729;-81
2023/03/30 04:30:19;;;;;;;4.53;1.98;;;;;;;12.28;86.93;100439.16;5029262;28;20087;-82
2023/03/30 04:32:45;;;;;;;5.28;1.95;;;;;;;12.07;86.55;100409.44;5034818;28;20068;-81
2023/03/30 04:35:13;;;;;;;4.38;1.73;;;;;;;12.26;86.91;100438.38;5036141;28;20060;-82
2023/03/30 04:37:40;;;;;;;8.23;2.22;;;;;;;12.21;87.50;100440.31;5035762;28;20040;-82
2023/03/30 04:40:08;;;;;;;3.33;1.58;;;;;;;12.09;86.91;100422.44;5035983;28;20022;-81
2023/03/30 04:42:36;;;;;;;6.00;1.95;;;;;;;12.08;87.75;100431.19;5035655;28;20036;-81
2023/03/30 04:45:11;;;;;;;6.40;2.00;;;;;;;11.99;88.88;100423.69;5036017;28;20018;-82
2023/03/30 04:47:36;;;;;;;5.68;2.08;;;;;;;11.81;89.29;100420.81;5034803;28;20029;-82
2023/03/30 04:50:02;;;;;;;7.90;2.20;;;;;;;11.67;90.51;100409.97;5049732;28;20030;-82
2023/03/30 04:52:28;;;;;;;5.93;2.30;;;;;;;11.76;91.31;100427.94;5035474;28;20191;-81
2023/03/30 04:54:53;;;;;;;6.57;2.10;;;;;;;11.61;92.70;100426.72;5035057;28;20025;-82
2023/03/30 04:57:19;;;;;;;9.63;2.00;;;;;;;11.48;93.42;100434.13;5035851;28;20025;-81
2023/03/30 05:02:25;;;;;;;10.25;2.25;;;;;;;11.45;93.23;100429.00;5013261;28;20156;-82
2023/03/30 05:04:50;;;;;;;8.52;1.90;;;;;;;11.44;93.34;100413.38;5015316;28;20485;-81
2023/03/30 05:07:15;;;;;;;6.97;2.38;;;;;;;11.59;93.91;100436.34;5000904;28;20540;-82
2023/03/30 05:09:40;;;;;;;5.40;2.03;;;;;;;11.46;97.51;100432.44;5015412;28;20026;-82
2023/03/30 05:12:06;;;;;;;5.70;2.05;;;;;;;11.22;100.00;100457.59;5015616;28;20024;-82
2023/03/30 05:14:31;;;;;;;8.02;1.95;;;;;;;10.86;100.00;100462.22;5014684;28;20462;-82
2023/03/30 05:16:57;;;;;;;7.07;3.05;;;;;;;10.59;100.00;100474.31;5015469;28;20398;-84
2023/03/30 05:19:23;;;;;;;6.68;2.55;;;;;;;10.35;100.00;100470.69;5015387;28;20466;-84
2023/03/30 05:21:48;;;;;;;6.15;2.80;;;;;;;10.26;100.00;100479.59;5014681;28;20105;-84
2023/03/30 05:24:14;;;;;;;9.70;3.10;;;;;;;10.18;100.00;100490.19;5015286;28;20478;-83
2023/03/30 05:26:39;;;;;;;8.77;3.28;;;;;;;10.05;100.00;100489.69;5015102;28;20036;-84
2023/03/30 05:29:04;;;;;;;10.60;4.25;;;;;;;9.97;100.00;100494.25;5014578;28;20029;-84
2023/03/30 05:31:29;;;;;;;12.10;4.03;;;;;;;9.96;100.00;100494.28;5014807;28;20053;-85
2023/03/30 05:33:55;;;;;;;13.48;4.03;;;;;;;9.88;100.00;100493.63;5015554;28;20026;-85
2023/03/30 05:36:20;;;;;;;9.13;4.05;;;;;;;9.88;100.00;100507.50;5014194;28;20045;-85
2023/03/30 05:38:45;;;;;;;8.98;4.43;;;;;;;9.53;100.00;100454.59;5083710;23;20081;-86
2023/03/30 05:41:11;;;;;;;9.07;3.88;;;;;;;9.41;100.00;100434.06;5034582;28;20014;-86
2023/03/30 05:43:36;;;;;;;9.77;4.32;;;;;;;9.71;100.00;100492.31;5033631;28;20366;-86
2023/03/30 05:46:02;;;;;;;9.15;4.40;;;;;;;9.84;100.00;100519.75;5034778;28;20101;-86
2023/03/30 05:48:29;;;;;;;8.82;5.00;;;;;;;9.84;100.00;100511.06;5034282;28;20100;-86
2023/03/30 05:50:55;;;;;;;9.18;4.05;;;;;;;9.84;100.00;100505.84;5033914;28;20108;-86
2023/03/30 05:53:20;;;;;;;10.30;4.68;;;;;;;9.83;100.00;100502.41;5034366;28;20156;-87
2023/03/30 05:55:47;;;;;;;12.00;4.40;;;;;;;9.74;100.00;100491.38;5034515;28;20022;-88
2023/03/30 05:58:13;;;;;;;10.43;4.88;;;;;;;9.80;100.00;100514.66;5033772;28;20033;-88
2023/03/30 06:00:40;;;;;;;12.25;5.28;;;;;;;9.68;100.00;100508.03;5034492;28;20022;-88
2023/03/30 06:03:07;;;;;;;13.38;5.63;;;;;;;9.74;100.00;100520.84;5034304;28;20021;-88
2023/03/30 06:05:34;;;;;;;12.73;5.93;;;;;;;9.84;100.00;100531.88;5033234;28;20025;-88
2023/03/30 06:08:00;;;;;;;15.18;5.88;;;;;;;9.80;100.00;100525.91;5034488;28;20022;-87
2023/03/30 06:10:26;;;;;;;19.58;6.45;;;;;;;9.83;100.00;100518.03;5033851;28;20013;-87
2023/03/30 06:12:52;;;;;;;15.52;5.63;;;;;;;9.82;100.00;100525.88;5034031;28;20033;-88
2023/03/30 06:15:17;;;;;;;12.65;5.13;;;;;;;9.81;100.00;100535.44;5034124;28;20071;-87
2023/03/30 06:17:42;;;;;;;18.65;5.70;;;;;;;9.82;100.00;100538.91;5033504;28;20028;-87
2023/03/30 06:20:11;;;;;;;11.50;5.50;;;;;;;9.75;100.00;100526.94;5034374;28;20026;-88
2023/03/30 06:22:37;;;;;;;16.85;5.40;;;;;;;9.80;100.00;100538.06;5033800;28;20033;-87
2023/03/30 06:25:02;;;;;;;12.45;6.03;;;;;;;9.81;100.00;100548.47;5032798;28;20048;-87
2023/03/30 06:27:31;;;;;;;14.82;7.10;;;;;;;9.88;100.00;100549.16;5033316;28;20461;-88
2023/03/30 06:32:31;;;;;;;15.25;7.22;;;;;;;9.54;100.00;100502.28;5204106;22;20045;-89
2023/03/30 06:35:03;;;;;;;12.30;6.68;;;;;;;9.65;100.00;100525.47;5033890;28;20025;-89
2023/03/30 06:37:35;;;;;;;10.88;6.40;;;;;;;9.56;100.00;100510.91;5033583;28;20461;-88
2023/03/30 06:40:02;;;;;;;20.15;7.55;;;;;;;9.62;100.00;100521.19;5032736;28;20025;-87
2023/03/30 06:42:40;;;;;;;13.77;6.45;;;;;;;9.82;100.00;100544.97;5033666;28;20026;-88
2023/03/30 06:48:28;;;;;;;15.27;5.40;;;;;;;9.69;100.00;100529.69;4970954;28;20035;-88
2023/03/30 06:51:11;;;;;;;12.35;5.43;;;;;;;9.52;100.00;100504.09;5023112;28;20441;-87
2023/03/30 06:54:02;;;;;;;12.88;4.75;;;;;;;9.78;100.00;100545.94;5032588;28;20036;-87
2023/03/30 06:56:38;;;;;;;10.63;3.50;;;;;;;9.49;100.00;100501.56;5033506;28;20056;-87
2023/03/30 07:02:43;;;;;;;13.85;3.92;;;;;;;9.39;100.00;100482.72;4942397;28;20031;-86
2023/03/30 07:05:14;;;;;;;14.05;4.55;;;;;;;9.35;100.00;100487.13;4933659;29;20373;-86
2023/03/30 07:07:40;;;;;;;12.20;4.00;;;;;;;9.78;100.00;100558.09;4968078;28;20142;-86
2023/03/30 07:10:09;;;;;;;10.98;4.78;;;;;;;9.84;100.00;100553.59;4976035;28;20038;-86
2023/03/30 07:12:43;;;;;;;15.65;4.72;;;;;;;9.86;100.00;100558.75;5046063;28;20037;-87
2023/03/30 07:15:12;;;;;;;16.92;4.68;;;;;;;9.95;100.00;100557.69;5032260;28;20021;-86
2023/03/30 07:17:38;;;;;;;10.68;4.68;;;;;;;9.97;100.00;100567.16;5039594;28;20075;-87
2023/03/30 07:20:05;;;;;;;11.65;4.20;;;;;;;9.89;100.00;100543.06;5040745;28;20473;-86
2023/03/30 07:22:30;;;;;;;10.38;4.65;;;;;;;10.05;100.00;100565.22;5032037;28;20077;-86
2023/03/30 07:24:56;;;;;;;15.68;4.72;;;;;;;10.13;100.00;100564.16;5043806;28;20132;-86
2023/03/30 07:27:23;;;;;;;14.52;4.80;;;;;;;10.26;100.00;100576.00;5036097;28;20026;-86
2023/03/30 07:29:49;;;;;;;14.73;4.60;;;;;;;10.41;100.00;100549.53;5031999;28;20088;-86
2023/03/30 07:32:15;;;;;;;19.30;4.28;;;;;;;10.54;100.00;100563.94;5032568;28;20100;-86
2023/03/30 07:34:41;;;;;;;12.13;3.95;;;;;;;10.56;100.00;100556.06;5049161;28;20036;-85
2023/03/30 07:37:06;;;;;;;12.68;3.78;;;;;;;10.65;100.00;100574.06;5042082;28;20021;-86
2023/03/30 07:39:32;;;;;;;8.98;3.38;;;;;;;10.67;100.00;100555.78;5046650;28;20028;-86
2023/03/30 07:41:58;;;;;;;11.02;3.35;;;;;;;10.78;100.00;100577.16;5025234;28;20022;-86
2023/03/30 07:44:23;;;;;;;12.45;2.92;;;;;;;10.75;100.00;100572.03;5025912;28;20108;-86
2023/03/30 07:46:48;;;;;;;10.30;3.63;;;;;;;10.74;100.00;100572.94;5032300;28;20381;-87
2023/03/30 07:49:14;;;;;;;14.55;3.10;;;;;;;10.89;100.00;100577.72;5031905;28;20052;-86
2023/03/30 07:51:40;;;;;;;10.02;4.05;;;;;;;11.00;100.00;100586.09;5032231;28;20067;-86
2023/03/30 07:54:05;;;;;;;11.82;3.03;;;;;;;11.29;100.00;100597.41;5032895;28;20017;-86
2023/03/30 07:56:32;;;;;;;10.27;2.80;;;;;;;11.43;100.00;100574.34;5045577;28;20033;-86
2023/03/30 07:58:57;;;;;;;8.52;2.92;;;;;;;11.66;100.00;100585.81;5039481;28;20017;-86
2023/03/30 08:01:23;;;;;;;10.70;3.40;;;;;;;11.79;100.00;100579.31;5039585;28;20030;-86
2023/03/30 08:03:48;;;;;;;9.55;2.80;;;;;;;11.81;100.00;100577.50;5031394;28;20072;-87
2023/03/30 08:06:13;;;;;;;12.02;2.90;;;;;;;11.87;100.00;100597.34;5032579;28;20401;-86
2023/03/30 08:08:39;;;;;;;11.27;3.55;;;;;;;11.86;100.00;100593.03;5032238;28;20021;-86
2023/03/30 08:11:07;;;;;;;8.98;3.30;;;;;;;12.00;100.00;100600.44;5031853;28;20014;-86
2023/03/30 08:13:33;;;;;;;9.88;3.30;;;;;;;12.07;100.00;100596.72;5032328;28;20084;-86
2023/03/30 08:15:58;;;;;;;12.10;3.08;;;;;;;12.12;100.00;100615.69;5032385;28;20369;-86
2023/03/30 08:18:24;;;;;;;9.68;3.70;;;;;;;12.15;100.00;100615.59;5031424;28;20029;-87
2023/03/30 08:20:51;;;;;;;10.98;3.38;;;;;;;12.16;100.00;100609.47;5045915;28;20013;-86
2023/03/30 08:23:17;;;;;;;13.48;2.70;;;;;;;11.99;100.00;100604.81;5032355;28;20036;-86
2023/03/30 08:25:44;;;;;;;9.65;2.63;;;;;;;12.02;100.00;100619.53;5031170;28;20021;-86
2023/03/30 08:28:10;;;;;;;15.38;3.20;;;;;;;12.12;100.00;100618.31;5032383;28;20037;-86
2023/03/30 08:33:12;;;;;;;13.32;3.53;;;;;;;12.12;100.00;100608.72;5074612;23;20510;-86
2023/03/30 08:35:38;;;;;;;9.93;3.08;;;;;;;11.78;100.00;100589.81;5571341;23;20046;-86
2023/03/30 08:38:41;;;;;;;10.55;3.00;;;;;;;11.78;100.00;100619.41;5012493;28;20399;-86
2023/03/30 08:41:27;;;;;;;15.57;3.38;;;;;;;11.79;100.00;100620.25;5011510;28;20034;-86
2023/03/30 08:44:00;;;;;;;13.85;3.10;;;;;;;11.79;100.00;100621.09;5012188;28;20030;-86
2023/03/30 08:46:27;;;;;;;14.10;3.08;;;;;;;11.85;100.00;100623.53;5011766;28;20535;-86
2023/03/30 08:48:56;;;;;;;13.75;3.75;;;;;;;11.94;100.00;100615.41;5014029;28;20084;-86
2023/03/30 08:51:24;;;;;;;12.48;2.70;;;;;;;12.12;100.00;100618.31;5016426;28;20022;-85
2023/03/30 08:54:02;;;;;;;13.15;3.35;;;;;;;12.30;100.00;100628.16;5015247;28;20026;-86
2023/03/30 08:56:35;;;;;;;10.82;2.92;;;;;;;12.42;100.00;100624.25;5002818;28;20061;-85
2023/03/30 08:59:18;;;;;;;15.50;3.15;;;;;;;12.51;100.00;100610.03;5016087;28;20022;-85
2023/03/30 09:01:56;;;;;;;10.60;2.95;;;;;;;12.83;100.00;100619.34;5015654;28;20025;-85
2023/03/30 09:04:40;;;;;;;13.75;2.80;;;;;;;13.16;99.35;100609.38;5015748;28;20036;-85
2023/03/30 09:07:17;;;;;;;12.98;2.75;;;;;;;13.50;97.57;100610.72;5014970;28;20508;-86
2023/03/30 09:09:45;;;;;;;17.13;3.55;;;;;;;13.75;99.43;100600.97;5015175;28;20473;-86
2023/03/30 09:12:27;;;;;;;10.88;2.42;;;;;;;14.14;94.13;100610.75;5016039;28;20105;-85
2023/03/30 09:15:10;;;;;;;13.40;3.72;;;;;;;14.11;89.02;100623.97;5014844;28;20051;-86
2023/03/30 09:17:46;;;;;;;12.13;3.17;;;;;;;13.85;87.73;100627.66;5015586;28;20053;-84
2023/03/30 09:20:21;;;;;;;14.20;3.00;;;;;;;13.67;92.04;100639.75;5002079;28;20022;-85
2023/03/30 09:22:48;;;;;;;12.23;3.00;;;;;;;13.50;89.34;100652.63;5015384;28;20049;-85
2023/03/30 09:25:18;;;;;;;10.98;2.97;;;;;;;13.35;90.20;100664.56;5015302;28;20084;-85
2023/03/30 09:28:02;;;;;;;17.10;3.40;;;;;;;13.26;88.79;100655.28;5014277;28;20026;-85
2023/03/30 09:30:36;;;;;;;11.43;3.47;;;;;;;13.46;88.77;100666.75;5002165;28;20030;-84
2023/03/30 09:33:08;;;;;;;;;;;;;;;13.48;nan;100660.56;5015663;28;20497;-85
2023/03/30 09:35:40;;;;;;;15.43;3.70;;;;;;;13.40;87.58;100651.28;5020358;28;19921;-85
2023/03/30 09:38:10;;;;;;;13.13;3.53;;;;;;;13.54;88.18;100647.22;5020865;28;20460;-85
2023/03/30 09:40:55;;;;;;;16.77;3.78;;;;;;;13.79;85.64;100660.19;5029472;28;20068;-84
2023/03/30 09:43:36;;;;;;;14.52;4.05;;;;;;;13.71;81.79;100661.44;5032850;28;20036;-84
2023/03/30 09:46:05;;;;;;;17.30;4.30;;;;;;;13.82;86.07;100651.38;5034773;28;20033;-84
2023/03/30 09:48:38;;;;;;;20.33;4.50;;;;;;;14.07;86.41;100661.72;5019954;28;20014;-85
2023/03/30 09:51:13;;;;;;;17.47;3.93;;;;;;;14.36;83.76;100639.53;5035030;28;20124;-84
2023/03/30 09:53:41;;;;;;;14.13;3.53;;;;;;;14.73;81.63;100665.06;5034674;28;20021;-84
2023/03/30 09:56:15;;;;;;;12.73;3.67;;;;;;;14.57;76.34;100679.78;5034196;28;20070;-84
2023/03/30 09:58:41;;;;;;;15.10;3.75;;;;;;;14.26;78.81;100681.03;5034307;28;20052;-85
2023/03/30 10:01:11;;;;;;;19.20;3.97;;;;;;;14.16;77.77;100663.97;5033941;28;20022;-84
2023/03/30 10:03:37;;;;;;;18.15;3.97;;;;;;;14.16;76.62;100679.72;5033531;28;20035;-84
2023/03/30 10:06:14;;;;;;;13.15;3.70;;;;;;;14.18;76.60;100662.13;5034792;28;20052;-84
2023/03/30 10:08:48;;;;;;;13.63;4.10;;;;;;;14.08;76.74;100681.78;5034355;28;20024;-84
2023/03/30 10:11:19;;;;;;;18.50;4.15;;;;;;;13.97;77.70;100684.00;5033619;28;20538;-83
2023/03/30 10:13:44;;;;;;;18.05;4.55;;;;;;;14.09;78.80;100685.25;5034165;28;20040;-84
2023/03/30 10:16:33;;;;;;;15.18;4.03;;;;;;;14.14;78.28;100673.66;5026217;28;20030;-83
2023/03/30 10:19:01;;;;;;;16.10;3.60;;;;;;;14.52;76.41;100693.09;5031532;28;20028;-85
2023/03/30 10:21:36;;;;;;;15.25;3.90;;;;;;;14.80;76.83;100675.31;5034205;28;20075;-85
2023/03/30 10:24:08;;;;;;;17.40;3.70;;;;;;;14.98;74.49;100687.63;5019190;28;20040;-82
2023/03/30 10:26:36;;;;;;;15.63;4.07;;;;;;;15.18;73.32;100687.59;5023823;28;20037;-82
2023/03/30 10:29:09;;;;;;;13.60;3.60;;;;;;;15.30;70.17;100682.69;5030505;28;20021;-81
2023/03/30 10:31:36;;;;;;;12.15;3.42;;;;;;;15.37;69.04;100689.41;5032873;28;20528;-81
2023/03/30 10:34:04;;;;;;;18.17;4.07;;;;;;;15.00;68.01;100701.53;5033645;28;20188;-81
2023/03/30 10:36:34;;;;;;;17.42;3.70;;;;;;;14.60;68.26;100699.78;5033382;28;20049;-81
2023/03/30 10:39:19;;;;;;;21.60;3.85;;;;;;;14.71;72.69;100677.44;5033026;28;20071;-81
2023/03/30 10:41:47;;;;;;;13.13;3.55;;;;;;;14.91;67.35;100686.16;5019562;28;20021;-81
2023/03/30 10:44:21;;;;;;;14.30;3.60;;;;;;;14.88;66.75;100687.19;5014122;28;20065;-81
2023/03/30 10:46:49;;;;;;;19.63;3.97;;;;;;;14.74;70.40;100671.16;5017466;28;20025;-81
2023/03/30 10:49:30;;;;;;;16.45;3.53;;;;;;;14.81;68.24;100688.34;5023202;28;20029;-81
2023/03/30 10:51:55;;;;;;;15.85;4.35;;;;;;;15.02;69.33;100686.56;5031977;28;20056;-81
2023/03/30 10:54:38;;;;;;;13.45;3.80;;;;;;;15.38;69.13;100697.19;5033846;28;20422;-81
2023/03/30 10:57:06;;;;;;;;;;;;;;;15.38;67.52;100678.81;5009851;28;20077;-83
2023/03/30 11:00:08;;;;;;;13.27;3.67;;;;;;;15.33;68.82;100685.19;5015857;28;20311;-83
2023/03/30 11:02:50;;;;;;;17.98;4.25;;;;;;;15.83;67.43;100690.75;5010715;28;20033;-83
2023/03/30 11:05:30;;;;;;;11.90;3.20;;;;;;;15.79;65.30;100689.16;5030362;28;20037;-84
2023/03/30 11:08:02;;;;;;;12.90;3.28;;;;;;;15.42;68.27;100696.13;5023326;28;20389;-84
2023/03/30 11:10:31;;;;;;;16.42;3.55;;;;;;;15.26;65.73;100699.50;5032854;28;20030;-83
2023/03/30 11:13:06;;;;;;;15.95;3.20;;;;;;;15.32;65.76;100692.22;5032475;28;20033;-81
2023/03/30 11:15:42;;;;;;;15.43;3.88;;;;;;;15.22;65.17;100683.06;5032802;28;20049;-81
2023/03/30 11:18:13;;;;;;;12.70;3.38;;;;;;;15.19;66.92;100683.19;5033238;28;20021;-84
2023/03/30 11:20:44;;;;;;;15.95;3.42;;;;;;;15.20;68.63;100675.25;5028691;28;20355;-84
2023/03/30 11:23:19;;;;;;;15.98;3.53;;;;;;;15.22;68.09;100678.66;5023496;28;20083;-84
2023/03/30 11:25:59;;;;;;;12.35;3.05;;;;;;;15.29;67.50;100681.84;5029528;28;20068;-84
2023/03/30 11:28:45;;;;;;;14.07;3.50;;;;;;;15.22;68.66;100683.06;5012510;28;20083;-81
2023/03/30 11:31:28;;;;;;;15.10;3.47;;;;;;;15.12;66.29;100687.84;5003594;28;20029;-83
2023/03/30 11:34:02;;;;;;;15.68;3.22;;;;;;;15.33;68.55;100682.56;5013319;28;20061;-81
2023/03/30 11:36:35;;;;;;;16.63;3.65;;;;;;;15.22;66.80;100685.69;5030180;28;20049;-81
2023/03/30 11:39:02;;;;;;;14.45;3.53;;;;;;;15.04;67.83;100671.63;5033136;28;20032;-81
2023/03/30 11:41:37;;;;;;;14.82;3.45;;;;;;;14.97;68.66;100688.53;5020612;28;20037;-81
2023/03/30 11:44:02;;;;;;;13.43;2.95;;;;;;;14.82;70.05;100692.69;5022942;28;20036;-81
2023/03/30 11:46:45;;;;;;;12.52;3.38;;;;;;;14.53;71.52;100678.19;5030402;28;20034;-82
2023/03/30 11:49:29;;;;;;;10.97;3.40;;;;;;;14.75;72.27;100671.13;5022612;28;20040;-80
2023/03/30 11:52:11;;;;;;;11.32;3.15;;;;;;;14.88;70.46;100688.97;5018867;28;20025;-81
2023/03/30 11:55:02;;;;;;;10.98;3.50;;;;;;;14.83;72.93;100691.78;5032241;28;20064;-80
2023/03/30 11:57:50;;;;;;;12.60;3.30;;;;;;;15.02;70.57;100691.81;5009740;28;20079;-81
2023/03/30 12:00:48;;;;;;;12.27;3.35;;;;;;;14.96;72.43;100692.94;5032514;28;20021;-80